Time;durP1;ratioP1;P1;durP2;ratioP2;P2;SDS_P1;SDS_P2;PMS_P1;PMS_P2;Temp;Humidity;BMP_temperature;BMP_pressure;BME280_temperature;BME280_humidity;BME280_pressure;Samples;Min_cycle;Max_cycle;Signal;HPM_P1;HPM_P2
2022/06/02 00:01:36;;;;;;;8.35;6.28;;;12.40;99.90;;;;;;5016961;28;20398;-81
2022/06/02 00:04:20;;;;;;;7.03;6.33;;;12.20;99.90;;;;;;5010548;28;20754;-83
2022/06/02 00:07:10;;;;;;;7.13;6.28;;;12.00;99.90;;;;;;5010557;28;20893;-86
2022/06/02 00:09:53;;;;;;;6.78;5.90;;;12.10;99.90;;;;;;5010477;28;20964;-83
2022/06/02 00:12:32;;;;;;;7.90;6.10;;;11.90;99.90;;;;;;5027882;28;20389;-85
2022/06/02 00:15:18;;;;;;;7.72;6.13;;;12.00;99.90;;;;;;5010800;28;20478;-85
2022/06/02 00:17:46;;;;;;;7.70;5.82;;;11.80;99.90;;;;;;5027779;28;20921;-84
2022/06/02 00:20:42;;;;;;;7.40;5.90;;;11.90;99.90;;;;;;5028503;28;20421;-85
2022/06/02 00:23:39;;;;;;;9.70;6.25;;;11.80;99.90;;;;;;5036249;28;20476;-84
2022/06/02 00:26:18;;;;;;;6.77;5.97;;;11.60;99.90;;;;;;5010622;28;20433;-84
2022/06/02 00:28:59;;;;;;;7.03;5.93;;;11.60;99.90;;;;;;5026732;28;20386;-85
2022/06/02 00:31:27;;;;;;;7.07;6.38;;;11.70;99.90;;;;;;5028478;28;20418;-85
2022/06/02 00:34:20;;;;;;;6.82;6.07;;;11.60;99.90;;;;;;5028147;28;20446;-85
2022/06/02 00:37:09;;;;;;;8.40;6.10;;;11.80;99.90;;;;;;5029186;28;20875;-84
2022/06/02 00:39:38;;;;;;;7.90;5.55;;;11.80;99.90;;;;;;5028708;28;20390;-84
2022/06/02 00:42:24;;;;;;;7.20;5.47;;;11.60;99.90;;;;;;5027862;28;20421;-85
2022/06/02 00:45:07;;;;;;;7.93;5.90;;;11.70;99.90;;;;;;5028370;28;20421;-85
2022/06/02 00:47:52;;;;;;;8.00;6.00;;;11.60;99.90;;;;;;5331380;23;20407;-82
2022/06/02 00:50:23;;;;;;;6.67;5.70;;;11.60;99.90;;;;;;4970135;28;20767;-83
2022/06/02 00:53:17;;;;;;;6.80;5.60;;;11.40;99.90;;;;;;4969769;28;20415;-84
2022/06/02 00:59:35;;;;;;;7.22;6.38;;;11.50;99.90;;;;;;4990222;28;20885;-84
2022/06/02 01:02:03;;;;;;;6.80;5.95;;;11.30;99.90;;;;;;4969654;28;20398;-82
2022/06/02 01:04:35;;;;;;;8.05;6.05;;;11.20;99.90;;;;;;4970757;28;20787;-83
2022/06/02 01:07:35;;;;;;;7.50;5.97;;;11.30;99.90;;;;;;4969641;28;20391;-84
2022/06/02 01:10:32;;;;;;;9.10;5.97;;;11.40;99.90;;;;;;4982731;28;20410;-82
2022/06/02 01:13:12;;;;;;;7.78;5.95;;;11.20;99.90;;;;;;4969549;28;20456;-83
2022/06/02 01:16:08;;;;;;;6.30;5.70;;;11.20;99.90;;;;;;4969086;28;20402;-83
2022/06/02 01:18:43;;;;;;;6.43;5.57;;;11.10;99.90;;;;;;4970655;28;20865;-83
2022/06/02 01:21:41;;;;;;;8.73;6.38;;;11.00;99.90;;;;;;4969525;28;20417;-84
2022/06/02 01:24:12;;;;;;;8.13;5.82;;;11.10;99.90;;;;;;4969317;28;20406;-84
2022/06/02 01:27:08;;;;;;;7.45;6.00;;;11.00;99.90;;;;;;4985338;28;20490;-83
2022/06/02 01:30:04;;;;;;;7.50;6.18;;;10.90;99.90;;;;;;4970282;28;20456;-83
2022/06/02 01:32:43;;;;;;;7.63;6.57;;;10.90;99.90;;;;;;4969094;28;20482;-82
2022/06/02 01:35:31;;;;;;;7.07;5.85;;;11.10;99.90;;;;;;4970283;28;20444;-84
2022/06/02 01:38:25;;;;;;;9.63;5.97;;;11.00;99.90;;;;;;4969237;28;20852;-84
2022/06/02 01:41:07;;;;;;;7.00;5.93;;;10.70;99.90;;;;;;4969016;28;20395;-82
2022/06/02 01:43:36;;;;;;;7.65;6.75;;;10.60;99.90;;;;;;4951138;28;20403;-83
2022/06/02 01:46:23;;;;;;;7.93;5.93;;;10.60;99.90;;;;;;4963516;28;20399;-83
2022/06/02 01:49:27;;;;;;;7.25;5.80;;;10.60;99.90;;;;;;4969783;28;20464;-83
2022/06/02 01:52:23;;;;;;;9.27;6.70;;;10.50;99.90;;;;;;4970026;28;20426;-82
2022/06/02 01:55:15;;;;;;;8.30;6.70;;;10.40;99.90;;;;;;4968554;28;20494;-82
2022/06/02 01:58:12;;;;;;;10.23;8.30;;;10.30;99.90;;;;;;4968614;28;20425;-83
2022/06/02 02:00:43;;;;;;;7.88;7.05;;;10.30;99.90;;;;;;4969838;28;20402;-82
2022/06/02 02:03:25;;;;;;;8.93;7.57;;;10.50;99.90;;;;;;4952624;28;20407;-83
2022/06/02 02:05:58;;;;;;;9.88;7.47;;;10.30;99.90;;;;;;4969857;28;20418;-82
2022/06/02 02:09:01;;;;;;;9.40;7.78;;;10.20;99.90;;;;;;4969833;28;20395;-83
2022/06/02 02:11:59;;;;;;;11.98;7.55;;;10.30;99.90;;;;;;4968371;28;20491;-83
2022/06/02 02:14:57;;;;;;;10.05;7.72;;;10.40;99.90;;;;;;4969649;28;20425;-81
2022/06/02 02:18:08;;;;;;;8.15;7.35;;;10.30;99.90;;;;;;4968190;28;20873;-83
2022/06/02 02:20:51;;;;;;;9.57;8.00;;;10.30;99.90;;;;;;4983278;28;20791;-83
2022/06/02 02:23:30;;;;;;;8.60;7.60;;;10.30;99.90;;;;;;4969603;28;20399;-82
2022/06/02 02:26:18;;;;;;;9.10;8.15;;;10.30;99.90;;;;;;4969691;28;20474;-83
2022/06/02 02:29:11;;;;;;;8.80;7.88;;;10.30;99.90;;;;;;4971046;28;20399;-81
2022/06/02 02:31:57;;;;;;;9.75;7.30;;;10.50;99.90;;;;;;4972898;28;20407;-83
2022/06/02 02:34:41;;;;;;;9.10;7.35;;;10.50;99.90;;;;;;4969477;28;20394;-82
2022/06/02 02:37:34;;;;;;;9.90;8.40;;;10.40;99.90;;;;;;4958091;28;20386;-84
2022/06/02 02:40:29;;;;;;;10.13;7.75;;;10.40;99.90;;;;;;4972876;28;20464;-79
2022/06/02 02:43:09;;;;;;;9.90;8.07;;;10.20;99.90;;;;;;4972693;28;20490;-83
2022/06/02 02:45:46;;;;;;;11.00;8.93;;;10.20;99.90;;;;;;4971568;28;20490;-83
2022/06/02 02:49:13;;;;;;;9.80;7.80;;;10.30;99.90;;;;;;4971281;28;20410;-83
2022/06/02 02:52:02;;;;;;;9.55;8.00;;;10.30;99.90;;;;;;5005174;28;20466;-84
2022/06/02 02:54:55;;;;;;;9.32;7.97;;;10.30;99.90;;;;;;5053930;28;20864;-84
2022/06/02 02:57:31;;;;;;;8.80;7.75;;;10.20;99.90;;;;;;4972435;28;20395;-84
2022/06/02 03:00:14;;;;;;;11.38;8.93;;;10.20;99.90;;;;;;4987590;28;20891;-83
2022/06/02 03:02:49;;;;;;;10.30;8.10;;;10.30;99.90;;;;;;4972396;28;20413;-83
2022/06/02 03:05:52;;;;;;;13.68;9.40;;;10.30;99.90;;;;;;4972432;28;20444;-83
2022/06/02 03:08:39;;;;;;;10.60;8.30;;;10.30;99.90;;;;;;4979691;28;20391;-84
2022/06/02 03:11:34;;;;;;;11.23;8.98;;;10.30;99.90;;;;;;4972578;28;20464;-84
2022/06/02 03:14:46;;;;;;;11.65;8.65;;;10.30;99.90;;;;;;4972344;28;20391;-82
2022/06/02 03:17:29;;;;;;;10.50;8.52;;;10.20;99.90;;;;;;4970997;28;20394;-82
2022/06/02 03:20:13;;;;;;;11.95;8.00;;;10.20;99.90;;;;;;4972216;28;20456;-82
2022/06/02 03:23:15;;;;;;;11.43;8.25;;;10.20;99.90;;;;;;4972129;28;20431;-82
2022/06/02 03:25:49;;;;;;;12.55;8.93;;;10.10;99.90;;;;;;4972194;28;20391;-82
2022/06/02 03:28:35;;;;;;;10.65;8.68;;;10.20;99.90;;;;;;4972055;28;20395;-82
2022/06/02 03:31:12;;;;;;;9.30;8.32;;;10.20;99.90;;;;;;4971913;28;20418;-84
2022/06/02 03:33:59;;;;;;;11.35;7.97;;;10.20;99.90;;;;;;4971987;28;20386;-82
2022/06/02 03:36:36;;;;;;;9.75;8.32;;;10.20;99.90;;;;;;4972018;28;20395;-83
2022/06/02 03:39:12;;;;;;;8.93;7.53;;;10.20;99.90;;;;;;4971400;28;20482;-82
2022/06/02 03:42:01;;;;;;;9.65;8.15;;;10.20;99.90;;;;;;4972102;28;20391;-83
2022/06/02 03:45:06;;;;;;;9.65;7.85;;;10.20;99.90;;;;;;4971964;28;20757;-81
2022/06/02 03:47:51;;;;;;;9.90;7.93;;;10.20;99.90;;;;;;4971725;28;20398;-83
2022/06/02 03:50:34;;;;;;;9.88;7.97;;;10.10;99.90;;;;;;4970542;28;20497;-83
2022/06/02 03:53:20;;;;;;;10.48;8.85;;;10.10;99.90;;;;;;4971840;28;20386;-83
2022/06/02 03:56:05;;;;;;;9.88;8.02;;;10.10;99.90;;;;;;4971781;28;20387;-82
2022/06/02 03:58:54;;;;;;;10.10;8.48;;;10.10;99.90;;;;;;4971599;28;20407;-83
2022/06/02 04:01:26;;;;;;;8.90;8.00;;;10.20;99.90;;;;;;4971044;28;20418;-81
2022/06/02 04:04:44;;;;;;;11.45;8.65;;;10.10;99.90;;;;;;4978774;28;20397;-83
2022/06/02 04:07:30;;;;;;;10.18;8.10;;;10.10;99.90;;;;;;5002802;28;20403;-82
2022/06/02 04:10:23;;;;;;;8.63;7.68;;;10.20;99.90;;;;;;4971303;28;20418;-83
2022/06/02 04:16:42;;;;;;;9.75;7.80;;;10.20;99.90;;;;;;4971091;28;20397;-81
2022/06/02 04:22:59;;;;;;;12.20;8.30;;;10.00;99.90;;;;;;4981701;28;20407;-82
2022/06/02 04:25:41;;;;;;;9.30;7.77;;;10.10;99.90;;;;;;4967738;28;20408;-82
2022/06/02 04:28:22;;;;;;;9.50;7.90;;;10.00;99.90;;;;;;4957166;28;20405;-82
2022/06/02 04:31:11;;;;;;;9.35;7.75;;;10.00;99.90;;;;;;4969593;28;20445;-83
2022/06/02 04:34:25;;;;;;;8.40;7.30;;;9.90;99.90;;;;;;4983544;28;20409;-82
2022/06/02 04:37:07;;;;;;;7.75;6.70;;;10.00;99.90;;;;;;4969237;28;20386;-81
2022/06/02 04:40:12;;;;;;;10.00;7.88;;;10.10;99.90;;;;;;4984714;28;20764;-83
2022/06/02 04:43:00;;;;;;;7.80;6.82;;;10.10;99.90;;;;;;4977777;28;20407;-83
2022/06/02 04:45:56;;;;;;;9.02;7.13;;;10.10;99.90;;;;;;4970764;28;20390;-82
2022/06/02 04:48:41;;;;;;;9.45;7.82;;;10.00;99.90;;;;;;4971002;28;20406;-82
2022/06/02 04:51:47;;;;;;;8.97;6.87;;;10.10;99.90;;;;;;4969600;28;20433;-83
2022/06/02 04:54:33;;;;;;;8.88;7.15;;;10.10;99.90;;;;;;4989908;28;20447;-82
2022/06/02 04:57:19;;;;;;;7.70;6.90;;;10.20;99.90;;;;;;4970797;28;20853;-83
2022/06/02 04:59:47;;;;;;;8.18;6.70;;;10.20;99.90;;;;;;4970839;28;20445;-83
2022/06/02 05:02:45;;;;;;;7.30;6.30;;;10.30;99.90;;;;;;4970567;28;20391;-82
2022/06/02 05:05:34;;;;;;;7.82;6.80;;;10.40;99.90;;;;;;4970950;28;20569;-82
2022/06/02 05:08:22;;;;;;;7.95;6.35;;;10.40;99.90;;;;;;4970648;28;20482;-82
2022/06/02 05:10:59;;;;;;;8.65;6.70;;;10.40;99.90;;;;;;4970297;28;20439;-81
2022/06/02 05:13:56;;;;;;;8.63;6.10;;;10.50;99.90;;;;;;4970604;28;20498;-82
2022/06/02 05:16:30;;;;;;;8.18;5.70;;;10.50;99.90;;;;;;4970299;28;20399;-82
2022/06/02 05:19:39;;;;;;;8.60;6.40;;;10.50;99.90;;;;;;4969884;28;20764;-83
2022/06/02 05:22:35;;;;;;;8.07;6.40;;;10.50;99.90;;;;;;4970201;28;20450;-80
2022/06/02 05:25:24;;;;;;;8.45;6.50;;;10.50;99.90;;;;;;5024041;28;20866;-83
2022/06/02 05:28:08;;;;;;;7.68;6.85;;;10.60;99.90;;;;;;4961283;28;20409;-83
2022/06/02 05:31:03;;;;;;;7.15;6.28;;;10.60;99.90;;;;;;4970025;28;20414;-82
2022/06/02 05:34:07;;;;;;;7.43;6.38;;;10.60;99.90;;;;;;4961986;28;20390;-84
2022/06/02 05:37:10;;;;;;;8.73;5.93;;;10.60;99.90;;;;;;4966980;28;20397;-84
2022/06/02 05:39:37;;;;;;;7.13;5.73;;;10.70;99.90;;;;;;4977056;28;20877;-84
2022/06/02 05:42:20;;;;;;;7.32;5.40;;;10.70;99.90;;;;;;4970136;28;20919;-84
2022/06/02 05:44:58;;;;;;;7.47;5.30;;;10.70;99.90;;;;;;4969499;28;20395;-85
2022/06/02 05:47:51;;;;;;;6.80;5.50;;;10.70;99.90;;;;;;4970065;28;21098;-83
2022/06/02 05:50:41;;;;;;;6.20;4.85;;;10.80;99.90;;;;;;4969788;28;20627;-84
2022/06/02 05:53:12;;;;;;;6.55;4.90;;;10.70;99.90;;;;;;4969924;28;20420;-83
2022/06/02 05:56:14;;;;;;;6.73;4.20;;;10.80;99.90;;;;;;4969957;28;20425;-82
2022/06/02 05:59:05;;;;;;;7.50;4.85;;;10.80;99.90;;;;;;4975668;28;20425;-83
2022/06/02 06:02:07;;;;;;;5.53;4.80;;;10.90;99.90;;;;;;4970271;28;20412;-83
2022/06/02 06:04:41;;;;;;;6.30;4.70;;;11.00;99.90;;;;;;4973148;28;20395;-83
2022/06/02 06:07:43;;;;;;;6.40;4.88;;;11.10;99.90;;;;;;4973475;28;20477;-83
2022/06/02 06:10:34;;;;;;;6.55;4.78;;;11.10;99.90;;;;;;4973307;28;20407;-84
2022/06/02 06:13:23;;;;;;;4.90;3.78;;;11.20;99.90;;;;;;4973224;28;20461;-83
2022/06/02 06:15:57;;;;;;;5.13;4.63;;;11.30;99.90;;;;;;4973021;28;20395;-82
2022/06/02 06:18:49;;;;;;;5.63;4.35;;;11.30;99.90;;;;;;4973102;28;20922;-82
2022/06/02 06:21:49;;;;;;;6.90;3.90;;;11.50;99.90;;;;;;4973215;28;20394;-82
2022/06/02 06:24:39;;;;;;;5.40;4.28;;;11.50;99.90;;;;;;4972965;28;20918;-82
2022/06/02 06:27:27;;;;;;;5.00;3.92;;;11.50;99.90;;;;;;5056331;28;20402;-83
2022/06/02 06:30:22;;;;;;;5.50;4.57;;;11.60;99.90;;;;;;4972833;28;20486;-81
2022/06/02 06:33:01;;;;;;;5.32;3.83;;;11.50;99.90;;;;;;4972673;28;20460;-83
2022/06/02 06:35:59;;;;;;;5.07;4.13;;;11.60;99.90;;;;;;4971531;28;20456;-83
2022/06/02 06:38:50;;;;;;;4.45;3.90;;;11.70;99.90;;;;;;4972833;28;20391;-82
2022/06/02 06:41:41;;;;;;;6.60;3.92;;;11.90;99.90;;;;;;4971472;28;20787;-82
2022/06/02 06:44:39;;;;;;;5.53;3.90;;;11.90;99.90;;;;;;4972740;28;20394;-83
2022/06/02 06:47:32;;;;;;;5.57;3.75;;;12.00;99.90;;;;;;4971291;28;20490;-83
2022/06/02 06:50:22;;;;;;;5.13;3.80;;;11.90;99.90;;;;;;4975474;28;20931;-82
2022/06/02 06:53:28;;;;;;;6.22;3.78;;;12.00;99.90;;;;;;4971281;28;20860;-83
2022/06/02 06:56:04;;;;;;;4.88;3.60;;;12.30;99.90;;;;;;4972609;28;20402;-83
2022/06/02 06:58:36;;;;;;;5.28;3.40;;;12.30;99.90;;;;;;4972542;28;20398;-82
2022/06/02 07:01:07;;;;;;;7.13;3.67;;;12.30;99.90;;;;;;4971691;28;20426;-83
2022/06/02 07:03:58;;;;;;;6.18;4.00;;;12.10;99.90;;;;;;4972412;28;20391;-83
2022/06/02 07:06:54;;;;;;;7.07;3.47;;;12.00;99.90;;;;;;4975768;28;20407;-84
2022/06/02 07:09:48;;;;;;;4.28;3.45;;;11.90;99.90;;;;;;4970984;28;20406;-83
2022/06/02 07:12:52;;;;;;;5.30;4.55;;;11.90;99.90;;;;;;4993599;28;20472;-84
2022/06/02 07:15:46;;;;;;;5.88;4.00;;;11.80;99.90;;;;;;4971236;28;20397;-83
2022/06/02 07:18:26;;;;;;;5.82;3.88;;;11.80;99.90;;;;;;4972129;28;20402;-84
2022/06/02 07:21:40;;;;;;;4.40;3.90;;;11.90;99.90;;;;;;4955232;28;20399;-84
2022/06/02 07:24:52;;;;;;;5.32;3.45;;;12.10;99.90;;;;;;4971853;28;20472;-84
2022/06/02 07:27:32;;;;;;;5.75;3.92;;;12.20;99.90;;;;;;4986957;28;20397;-83
2022/06/02 07:30:32;;;;;;;5.10;3.50;;;12.20;99.90;;;;;;4972088;28;20394;-84
2022/06/02 07:33:20;;;;;;;5.35;3.47;;;12.30;99.90;;;;;;4966251;28;20452;-84
2022/06/02 07:35:51;;;;;;;5.35;3.58;;;12.30;99.90;;;;;;4970763;28;20427;-83
2022/06/02 07:38:48;;;;;;;4.90;3.50;;;12.40;99.90;;;;;;4971815;28;20399;-83
2022/06/02 07:41:28;;;;;;;5.00;3.40;;;12.40;99.90;;;;;;4972899;28;20391;-84
2022/06/02 07:44:02;;;;;;;4.47;3.20;;;12.40;99.90;;;;;;4986608;28;20481;-82
2022/06/02 07:46:47;;;;;;;4.03;3.10;;;12.60;99.90;;;;;;4986686;28;20481;-80
2022/06/02 07:49:37;;;;;;;4.90;3.10;;;12.70;99.90;;;;;;4986195;28;20448;-83
2022/06/02 07:52:08;;;;;;;4.30;2.97;;;12.80;99.90;;;;;;4971585;28;20414;-83
2022/06/02 07:55:03;;;;;;;5.35;3.00;;;12.90;99.90;;;;;;4986444;28;20679;-82
2022/06/02 07:57:32;;;;;;;4.32;3.30;;;13.00;99.90;;;;;;4971785;28;20395;-82
2022/06/02 08:00:20;;;;;;;3.63;2.90;;;13.00;99.90;;;;;;4986333;28;20803;-83
2022/06/02 08:03:16;;;;;;;5.82;2.78;;;13.10;99.90;;;;;;4986288;28;20978;-81
2022/06/02 08:05:55;;;;;;;4.07;3.10;;;13.30;99.90;;;;;;4971447;28;20391;-81
2022/06/02 08:09:02;;;;;;;6.68;3.00;;;13.20;99.90;;;;;;4986382;28;20467;-83
2022/06/02 08:12:02;;;;;;;5.28;3.10;;;13.20;99.90;;;;;;4986198;28;20488;-81
2022/06/02 08:14:47;;;;;;;4.57;2.97;;;13.30;99.90;;;;;;4971384;28;20391;-81
2022/06/02 08:17:36;;;;;;;5.30;2.72;;;13.20;99.90;;;;;;4986047;28;20452;-81
2022/06/02 08:20:42;;;;;;;4.10;2.60;;;13.10;99.90;;;;;;4971082;28;20395;-82
2022/06/02 08:23:25;;;;;;;4.15;2.60;;;13.10;99.90;;;;;;4986174;28;20399;-82
2022/06/02 08:25:56;;;;;;;3.22;2.40;;;13.10;99.90;;;;;;4986045;28;20391;-82
2022/06/02 08:28:45;;;;;;;5.10;2.83;;;13.20;99.90;;;;;;4986003;28;20395;-83
2022/06/02 08:31:40;;;;;;;4.63;2.90;;;13.30;99.90;;;;;;4970931;28;20880;-82
2022/06/02 08:34:15;;;;;;;3.53;2.70;;;13.40;99.90;;;;;;4970944;28;20402;-82
2022/06/02 08:36:57;;;;;;;5.63;2.70;;;13.40;99.90;;;;;;4985933;28;20426;-82
2022/06/02 08:39:43;;;;;;;5.30;2.78;;;13.60;99.90;;;;;;4971014;28;20868;-83
2022/06/02 08:42:49;;;;;;;4.43;2.65;;;13.50;99.90;;;;;;4971048;28;20414;-83
2022/06/02 08:45:56;;;;;;;4.00;2.70;;;13.40;99.90;;;;;;4985641;28;20405;-83
2022/06/02 08:49:04;;;;;;;4.43;2.77;;;13.30;99.90;;;;;;4981145;28;20402;-82
2022/06/02 08:51:47;;;;;;;4.45;2.63;;;13.20;99.90;;;;;;4985460;28;20457;-82
2022/06/02 08:54:36;;;;;;;4.50;2.50;;;13.10;99.90;;;;;;4970749;28;20425;-82
2022/06/02 08:57:25;;;;;;;3.20;2.50;;;13.10;99.90;;;;;;4970770;28;20398;-82
2022/06/02 09:00:28;;;;;;;3.92;2.45;;;13.10;99.90;;;;;;4985342;28;20796;-82
2022/06/02 09:03:21;;;;;;;4.85;2.30;;;13.10;99.90;;;;;;4970502;28;20915;-82
2022/06/02 09:05:48;;;;;;;4.13;2.33;;;13.20;99.90;;;;;;4985627;28;20403;-83
2022/06/02 09:08:38;;;;;;;3.72;2.40;;;13.20;99.90;;;;;;4970438;28;20391;-83
2022/06/02 09:11:24;;;;;;;4.47;2.90;;;13.20;99.90;;;;;;4970504;28;20390;-84
2022/06/02 09:14:27;;;;;;;3.53;2.83;;;13.20;99.90;;;;;;4970493;28;20394;-83
2022/06/02 09:17:08;;;;;;;3.60;2.72;;;13.30;99.90;;;;;;4970357;28;20873;-84
2022/06/02 09:19:36;;;;;;;3.33;2.60;;;13.40;99.90;;;;;;4985159;28;20448;-84
2022/06/02 09:22:32;;;;;;;5.53;2.83;;;13.50;99.90;;;;;;4970362;28;20419;-84
2022/06/02 09:25:21;;;;;;;2.95;2.22;;;13.60;99.90;;;;;;4971496;28;20410;-83
2022/06/02 09:28:16;;;;;;;5.15;2.72;;;13.80;99.90;;;;;;4970203;28;20451;-83
2022/06/02 09:30:52;;;;;;;4.07;2.05;;;13.70;99.90;;;;;;4970122;28;20557;-83
2022/06/02 09:33:38;;;;;;;3.20;2.40;;;13.70;99.90;;;;;;4968998;28;20493;-83
2022/06/02 09:36:31;;;;;;;3.22;2.28;;;13.70;99.90;;;;;;4984783;28;20414;-84
2022/06/02 09:39:44;;;;;;;3.88;2.58;;;13.70;99.90;;;;;;4969721;28;20491;-82
2022/06/02 09:42:11;;;;;;;4.35;2.60;;;14.00;99.90;;;;;;4984884;28;20444;-83
2022/06/02 09:45:16;;;;;;;3.72;2.67;;;14.00;99.90;;;;;;4984801;28;20403;-83
2022/06/02 09:48:07;;;;;;;3.30;2.40;;;14.10;99.90;;;;;;4969837;28;20390;-84
2022/06/02 09:51:03;;;;;;;4.57;2.50;;;14.10;99.90;;;;;;4969821;28;20398;-83
2022/06/02 09:53:59;;;;;;;4.13;2.15;;;14.00;99.90;;;;;;4954675;28;20407;-83
2022/06/02 09:56:45;;;;;;;3.42;2.03;;;14.00;99.90;;;;;;4965480;28;20386;-82
2022/06/02 09:59:28;;;;;;;4.47;2.53;;;14.00;99.90;;;;;;4968701;28;20422;-83
2022/06/02 10:02:21;;;;;;;4.65;2.35;;;14.00;99.90;;;;;;4969887;28;20869;-83
2022/06/02 10:04:58;;;;;;;3.17;2.40;;;14.00;99.90;;;;;;4968495;28;20395;-84
2022/06/02 10:08:11;;;;;;;5.43;2.47;;;14.10;99.90;;;;;;4968423;28;20440;-84
2022/06/02 10:11:04;;;;;;;3.58;2.30;;;14.10;99.90;;;;;;4969621;28;20934;-83
2022/06/02 10:13:52;;;;;;;3.75;2.17;;;14.10;99.90;;;;;;4969487;28;20773;-83
2022/06/02 10:16:25;;;;;;;4.78;2.45;;;14.10;99.90;;;;;;4969522;28;20876;-82
2022/06/02 10:19:08;;;;;;;4.07;2.42;;;14.10;99.90;;;;;;4969542;28;20393;-83
2022/06/02 10:21:56;;;;;;;3.20;2.00;;;14.10;99.90;;;;;;4969622;28;20509;-83
2022/06/02 10:24:47;;;;;;;4.30;2.25;;;14.10;99.90;;;;;;4969648;28;20753;-82
2022/06/02 10:27:45;;;;;;;2.80;2.30;;;14.20;99.90;;;;;;4968085;28;20395;-82
2022/06/02 10:30:50;;;;;;;4.50;2.22;;;14.20;99.90;;;;;;4969546;28;20922;-83
2022/06/02 10:33:42;;;;;;;4.50;2.40;;;14.20;99.90;;;;;;4969258;28;20505;-83
2022/06/02 10:36:25;;;;;;;5.30;2.60;;;14.20;99.90;;;;;;4969440;28;20473;-83
2022/06/02 10:39:06;;;;;;;3.78;2.35;;;14.30;99.90;;;;;;4967865;28;20403;-84
2022/06/02 10:41:36;;;;;;;2.92;2.53;;;14.30;99.90;;;;;;4984291;28;20422;-83
2022/06/02 10:44:30;;;;;;;4.85;2.15;;;14.40;99.90;;;;;;4984513;28;20391;-85
2022/06/02 10:47:45;;;;;;;4.35;2.22;;;14.40;99.90;;;;;;4968960;28;20395;-83
2022/06/02 10:50:25;;;;;;;3.53;2.40;;;14.40;99.90;;;;;;4969587;28;20383;-84
2022/06/02 10:53:35;;;;;;;4.18;2.75;;;14.30;99.90;;;;;;4975406;28;20411;-84
2022/06/02 10:56:36;;;;;;;4.25;2.45;;;14.30;99.90;;;;;;4952372;28;20935;-84
2022/06/02 10:59:37;;;;;;;4.63;2.50;;;14.40;99.90;;;;;;4957271;28;20394;-83
2022/06/02 11:02:23;;;;;;;4.45;2.60;;;14.30;99.90;;;;;;4972400;28;20486;-83
2022/06/02 11:04:50;;;;;;;3.78;2.70;;;14.30;99.90;;;;;;4967586;28;20411;-84
2022/06/02 11:07:48;;;;;;;6.03;2.40;;;14.20;99.90;;;;;;4972538;28;20398;-83
2022/06/02 11:10:43;;;;;;;3.83;2.45;;;14.30;99.90;;;;;;4973294;28;21062;-83
2022/06/02 11:13:29;;;;;;;4.35;2.20;;;14.50;99.90;;;;;;4972403;28;20505;-82
2022/06/02 11:16:15;;;;;;;4.85;2.10;;;14.50;99.90;;;;;;4971596;28;20409;-82
2022/06/02 11:19:00;;;;;;;3.35;2.10;;;14.60;99.90;;;;;;4983799;28;20448;-84
2022/06/02 11:21:43;;;;;;;3.72;2.15;;;14.80;99.90;;;;;;5015059;28;20390;-83
2022/06/02 11:24:51;;;;;;;3.05;2.20;;;15.00;99.90;;;;;;4980165;28;20407;-81
2022/06/02 11:27:40;;;;;;;3.50;2.00;;;15.00;99.90;;;;;;4981205;28;20402;-84
2022/06/02 11:30:25;;;;;;;3.00;2.05;;;15.10;99.90;;;;;;4971951;28;20395;-83
2022/06/02 11:33:22;;;;;;;4.55;2.10;;;15.10;99.90;;;;;;4971790;28;20406;-84
2022/06/02 11:36:24;;;;;;;2.78;2.20;;;14.90;99.90;;;;;;4970643;28;20434;-84
2022/06/02 11:38:55;;;;;;;3.88;2.15;;;14.80;99.90;;;;;;4970479;28;20488;-85
2022/06/02 11:41:45;;;;;;;2.70;2.00;;;14.60;99.90;;;;;;4970866;28;20399;-84
2022/06/02 11:44:37;;;;;;;3.38;2.00;;;14.60;99.90;;;;;;5005411;28;20860;-86
2022/06/02 11:47:43;;;;;;;5.22;2.40;;;14.60;99.90;;;;;;4970619;28;20391;-84
2022/06/02 11:50:37;;;;;;;3.95;2.00;;;14.70;99.90;;;;;;4971529;28;20391;-85
2022/06/02 11:53:25;;;;;;;2.97;1.92;;;14.60;99.90;;;;;;4970383;28;20486;-84
2022/06/02 11:56:16;;;;;;;3.42;2.00;;;14.70;99.90;;;;;;5000557;28;20399;-84
2022/06/02 11:58:52;;;;;;;3.35;2.53;;;14.70;99.90;;;;;;4970524;28;20391;-85
2022/06/02 12:01:40;;;;;;;3.03;2.00;;;14.70;99.90;;;;;;4969492;28;20422;-83
2022/06/02 12:05:03;;;;;;;3.63;2.50;;;14.80;99.90;;;;;;4967922;28;20395;-83
2022/06/02 12:07:53;;;;;;;2.37;1.80;;;15.10;99.90;;;;;;5012059;28;20385;-85
2022/06/02 12:10:44;;;;;;;4.55;2.25;;;15.20;99.90;;;;;;4965052;28;20408;-84
2022/06/02 12:13:32;;;;;;;3.28;2.10;;;15.00;99.90;;;;;;4967865;28;20503;-84
2022/06/02 12:16:10;;;;;;;2.55;1.98;;;15.20;99.90;;;;;;5052606;28;20398;-84
2022/06/02 12:18:47;;;;;;;2.83;1.77;;;15.60;99.90;;;;;;4970125;28;20422;-84
2022/06/02 12:21:15;;;;;;;3.92;1.95;;;15.50;99.90;;;;;;4967654;28;20907;-85
2022/06/02 12:24:01;;;;;;;3.10;2.10;;;15.60;99.90;;;;;;4968324;28;20452;-83
2022/06/02 12:27:14;;;;;;;3.25;1.90;;;15.40;99.90;;;;;;4968077;28;20418;-84
2022/06/02 12:30:14;;;;;;;4.40;1.80;;;15.40;99.90;;;;;;4983550;28;20406;-83
2022/06/02 12:32:59;;;;;;;4.88;2.00;;;15.20;99.90;;;;;;4956006;28;20540;-84
2022/06/02 12:36:00;;;;;;;2.70;2.10;;;15.10;99.90;;;;;;4968201;28;20462;-82
2022/06/02 12:39:11;;;;;;;3.40;1.90;;;15.10;99.90;;;;;;4954710;28;20400;-84
2022/06/02 12:42:16;;;;;;;3.37;2.00;;;15.00;99.90;;;;;;4960381;28;20411;-84
2022/06/02 12:45:01;;;;;;;3.15;2.05;;;14.80;99.90;;;;;;4969766;28;20425;-84
2022/06/02 12:48:03;;;;;;;2.90;1.83;;;14.80;99.90;;;;;;4970993;28;20430;-82
2022/06/02 12:51:02;;;;;;;4.47;1.92;;;14.80;99.90;;;;;;4970212;28;20387;-84
2022/06/02 12:54:07;;;;;;;2.90;1.90;;;14.90;99.90;;;;;;4969520;28;20464;-84
2022/06/02 12:57:08;;;;;;;5.53;2.10;;;14.90;99.90;;;;;;4970698;28;20398;-84
2022/06/02 13:00:16;;;;;;;3.42;1.80;;;14.90;99.90;;;;;;4980075;28;20464;-84
2022/06/02 13:03:21;;;;;;;3.65;1.80;;;14.90;99.90;;;;;;4969586;28;20398;-83
2022/06/02 13:05:49;;;;;;;2.80;1.90;;;14.80;99.90;;;;;;4974688;28;20433;-84
2022/06/02 13:08:28;;;;;;;3.15;1.70;;;14.80;99.90;;;;;;4960788;28;20395;-81
2022/06/02 13:11:21;;;;;;;3.33;1.92;;;14.80;99.90;;;;;;4965686;28;20449;-84
2022/06/02 13:14:22;;;;;;;4.30;1.87;;;14.80;99.90;;;;;;4994457;28;20410;-84
2022/06/02 13:17:08;;;;;;;5.07;2.00;;;14.70;99.90;;;;;;4970420;28;20407;-84
2022/06/02 13:20:18;;;;;;;3.07;1.87;;;14.70;99.90;;;;;;4970506;28;20415;-84
2022/06/02 13:23:20;;;;;;;2.70;1.50;;;14.50;99.90;;;;;;4970511;28;20391;-84
2022/06/02 13:26:16;;;;;;;6.47;2.72;;;14.30;99.90;;;;;;4967749;28;20411;-84
2022/06/02 13:29:06;;;;;;;1.50;1.10;;;14.00;99.90;;;;;;4969420;28;20386;-83
2022/06/02 13:31:59;;;;;;;1.30;1.00;;;14.00;99.90;;;;;;4968237;28;20838;-83
2022/06/02 13:34:56;;;;;;;1.90;0.80;;;14.00;99.90;;;;;;4968084;28;20398;-84
2022/06/02 13:38:00;;;;;;;2.35;1.27;;;13.80;99.90;;;;;;4987165;28;20421;-84
2022/06/02 13:40:50;;;;;;;2.88;1.30;;;13.80;99.90;;;;;;4962495;28;20407;-84
2022/06/02 13:43:40;;;;;;;4.10;1.70;;;13.80;99.90;;;;;;4972304;28;20892;-84
2022/06/02 13:46:38;;;;;;;4.30;1.63;;;13.80;99.90;;;;;;4979950;28;20438;-84
2022/06/02 13:49:43;;;;;;;4.28;2.00;;;13.80;99.90;;;;;;4955876;28;20408;-84
2022/06/02 13:52:44;;;;;;;2.30;1.50;;;13.90;99.90;;;;;;4985847;28;20406;-83
2022/06/02 13:58:50;;;;;;;3.83;1.73;;;14.00;99.90;;;;;;4981384;28;20407;-83
2022/06/02 14:01:42;;;;;;;1.98;1.50;;;14.10;99.90;;;;;;4987414;28;20838;-84
2022/06/02 14:04:29;;;;;;;3.25;1.63;;;14.00;99.90;;;;;;4968543;28;20405;-83
2022/06/02 14:07:14;;;;;;;4.13;1.42;;;14.10;99.90;;;;;;4968830;28;20410;-84
2022/06/02 14:10:12;;;;;;;6.25;2.85;;;14.00;99.90;;;;;;4964473;28;20849;-83
2022/06/02 14:13:07;;;;;;;3.70;2.03;;;14.00;99.90;;;;;;4965291;28;20497;-81
2022/06/02 14:16:27;;;;;;;3.40;1.60;;;14.00;99.90;;;;;;4996684;28;20477;-84
2022/06/02 14:19:10;;;;;;;2.47;1.40;;;14.00;99.90;;;;;;5010764;28;20390;-85
2022/06/02 14:22:04;;;;;;;3.05;1.70;;;13.90;99.90;;;;;;4972229;28;20406;-83
2022/06/02 14:24:43;;;;;;;3.70;1.35;;;13.90;99.90;;;;;;4964145;28;20395;-83
2022/06/02 14:27:25;;;;;;;2.10;1.20;;;13.70;99.90;;;;;;4952470;28;20479;-83
2022/06/02 14:30:26;;;;;;;3.23;1.50;;;13.70;99.90;;;;;;4964152;28;20402;-85
2022/06/02 14:33:10;;;;;;;2.05;0.90;;;13.70;99.90;;;;;;4987578;28;20410;-83
2022/06/02 14:36:02;;;;;;;1.83;1.00;;;13.70;99.90;;;;;;4962268;28;20387;-83
2022/06/02 14:38:48;;;;;;;1.80;0.80;;;13.80;99.90;;;;;;4972794;28;20387;-83
2022/06/02 14:41:34;;;;;;;1.58;1.13;;;13.80;99.90;;;;;;4968934;28;21178;-85
2022/06/02 14:44:18;;;;;;;4.13;2.40;;;13.70;99.90;;;;;;4970829;28;20416;-83
2022/06/02 14:46:58;;;;;;;5.00;3.00;;;13.60;99.90;;;;;;4968014;28;20948;-84
2022/06/02 14:49:59;;;;;;;1.05;0.88;;;13.70;99.90;;;;;;4972261;28;20434;-84
2022/06/02 14:52:39;;;;;;;1.17;1.00;;;13.80;99.90;;;;;;4987510;28;20402;-84
2022/06/02 14:55:15;;;;;;;1.47;1.07;;;13.70;99.90;;;;;;4987343;28;20769;-84